sensor_id;sensor_type;location;lat;lon;timestamp;P1;durP1;ratioP1;P2;durP2;ratioP2
62030;SDS011;62035;52.094;5.112;2022-10-23T00:02:26;28.95;;;13.18;;
62030;SDS011;62035;52.094;5.112;2022-10-23T00:04:53;20.77;;;11.20;;
62030;SDS011;62035;52.094;5.112;2022-10-23T00:07:21;22.95;;;11.52;;
62030;SDS011;62035;52.094;5.112;2022-10-23T00:09:48;24.40;;;12.93;;
62030;SDS011;62035;52.094;5.112;2022-10-23T00:12:17;29.52;;;13.77;;
62030;SDS011;62035;52.094;5.112;2022-10-23T00:14:45;28.38;;;12.68;;
62030;SDS011;62035;52.094;5.112;2022-10-23T00:17:12;26.10;;;12.35;;
62030;SDS011;62035;52.094;5.112;2022-10-23T00:19:40;27.13;;;13.32;;
62030;SDS011;62035;52.094;5.112;2022-10-23T00:22:07;24.15;;;11.10;;
62030;SDS011;62035;52.094;5.112;2022-10-23T00:24:36;26.80;;;11.63;;
62030;SDS011;62035;52.094;5.112;2022-10-23T00:27:03;23.55;;;11.57;;
62030;SDS011;62035;52.094;5.112;2022-10-23T00:29:32;27.08;;;12.48;;
62030;SDS011;62035;52.094;5.112;2022-10-23T00:32:00;26.35;;;14.23;;
62030;SDS011;62035;52.094;5.112;2022-10-23T00:34:27;31.27;;;14.32;;
62030;SDS011;62035;52.094;5.112;2022-10-23T00:36:55;33.25;;;14.05;;
62030;SDS011;62035;52.094;5.112;2022-10-23T00:39:22;25.38;;;12.90;;
62030;SDS011;62035;52.094;5.112;2022-10-23T00:41:50;20.17;;;10.40;;
62030;SDS011;62035;52.094;5.112;2022-10-23T00:47:36;17.40;;;8.88;;
62030;SDS011;62035;52.094;5.112;2022-10-23T00:50:04;16.95;;;9.35;;
62030;SDS011;62035;52.094;5.112;2022-10-23T00:52:33;14.60;;;8.13;;
62030;SDS011;62035;52.094;5.112;2022-10-23T00:55:08;15.35;;;8.85;;
62030;SDS011;62035;52.094;5.112;2022-10-23T00:57:36;16.63;;;9.45;;
62030;SDS011;62035;52.094;5.112;2022-10-23T01:00:13;21.75;;;10.93;;
62030;SDS011;62035;52.094;5.112;2022-10-23T01:02:46;23.42;;;11.57;;
62030;SDS011;62035;52.094;5.112;2022-10-23T01:05:14;25.73;;;12.82;;
62030;SDS011;62035;52.094;5.112;2022-10-23T01:07:44;24.25;;;11.13;;
62030;SDS011;62035;52.094;5.112;2022-10-23T01:10:21;26.13;;;11.63;;
62030;SDS011;62035;52.094;5.112;2022-10-23T01:12:59;27.23;;;10.52;;
62030;SDS011;62035;52.094;5.112;2022-10-23T01:15:40;23.05;;;11.20;;
62030;SDS011;62035;52.094;5.112;2022-10-23T01:18:18;21.27;;;10.45;;
62030;SDS011;62035;52.094;5.112;2022-10-23T01:20:55;20.08;;;10.52;;
62030;SDS011;62035;52.094;5.112;2022-10-23T01:23:35;17.48;;;10.27;;
62030;SDS011;62035;52.094;5.112;2022-10-23T01:26:32;21.20;;;10.00;;
62030;SDS011;62035;52.094;5.112;2022-10-23T01:29:14;18.73;;;9.68;;
62030;SDS011;62035;52.094;5.112;2022-10-23T01:31:50;19.60;;;9.85;;
62030;SDS011;62035;52.094;5.112;2022-10-23T01:34:31;18.48;;;10.18;;
62030;SDS011;62035;52.094;5.112;2022-10-23T01:37:11;20.67;;;10.18;;
62030;SDS011;62035;52.094;5.112;2022-10-23T01:39:47;17.98;;;9.45;;
62030;SDS011;62035;52.094;5.112;2022-10-23T01:42:22;17.25;;;9.02;;
62030;SDS011;62035;52.094;5.112;2022-10-23T01:45:00;14.45;;;9.02;;
62030;SDS011;62035;52.094;5.112;2022-10-23T01:47:34;23.77;;;9.18;;
62030;SDS011;62035;52.094;5.112;2022-10-23T01:50:03;23.48;;;12.48;;
62030;SDS011;62035;52.094;5.112;2022-10-23T01:52:35;23.98;;;9.75;;
62030;SDS011;62035;52.094;5.112;2022-10-23T01:55:03;14.90;;;8.98;;
62030;SDS011;62035;52.094;5.112;2022-10-23T01:57:36;25.60;;;9.02;;
62030;SDS011;62035;52.094;5.112;2022-10-23T02:00:10;13.23;;;8.02;;
62030;SDS011;62035;52.094;5.112;2022-10-23T02:02:40;17.35;;;8.45;;
62030;SDS011;62035;52.094;5.112;2022-10-23T02:05:14;20.10;;;8.20;;
62030;SDS011;62035;52.094;5.112;2022-10-23T02:07:47;15.45;;;7.47;;
62030;SDS011;62035;52.094;5.112;2022-10-23T02:10:15;16.85;;;8.73;;
62030;SDS011;62035;52.094;5.112;2022-10-23T02:12:46;19.27;;;9.00;;
62030;SDS011;62035;52.094;5.112;2022-10-23T02:15:26;15.98;;;8.18;;
62030;SDS011;62035;52.094;5.112;2022-10-23T02:18:02;18.75;;;8.45;;
62030;SDS011;62035;52.094;5.112;2022-10-23T02:20:39;12.75;;;7.78;;
62030;SDS011;62035;52.094;5.112;2022-10-23T02:23:14;14.55;;;7.68;;
62030;SDS011;62035;52.094;5.112;2022-10-23T02:25:49;17.30;;;8.00;;
62030;SDS011;62035;52.094;5.112;2022-10-23T02:28:25;16.70;;;8.05;;
62030;SDS011;62035;52.094;5.112;2022-10-23T02:31:01;15.27;;;8.20;;
62030;SDS011;62035;52.094;5.112;2022-10-23T02:33:34;19.48;;;8.38;;
62030;SDS011;62035;52.094;5.112;2022-10-23T02:36:02;14.90;;;7.70;;
62030;SDS011;62035;52.094;5.112;2022-10-23T02:38:32;15.00;;;7.32;;
62030;SDS011;62035;52.094;5.112;2022-10-23T02:41:19;16.30;;;7.43;;
62030;SDS011;62035;52.094;5.112;2022-10-23T02:44:07;15.70;;;8.02;;
62030;SDS011;62035;52.094;5.112;2022-10-23T02:46:52;17.30;;;7.60;;
62030;SDS011;62035;52.094;5.112;2022-10-23T02:49:36;13.73;;;8.07;;
62030;SDS011;62035;52.094;5.112;2022-10-23T02:52:17;17.05;;;7.80;;
62030;SDS011;62035;52.094;5.112;2022-10-23T02:55:03;15.43;;;7.63;;
62030;SDS011;62035;52.094;5.112;2022-10-23T02:57:43;15.35;;;6.85;;
62030;SDS011;62035;52.094;5.112;2022-10-23T03:00:20;23.52;;;7.90;;
62030;SDS011;62035;52.094;5.112;2022-10-23T03:02:53;13.45;;;8.10;;
62030;SDS011;62035;52.094;5.112;2022-10-23T03:05:25;17.83;;;8.38;;
62030;SDS011;62035;52.094;5.112;2022-10-23T03:07:58;14.43;;;8.20;;
62030;SDS011;62035;52.094;5.112;2022-10-23T03:10:29;14.77;;;7.47;;
62030;SDS011;62035;52.094;5.112;2022-10-23T03:12:56;19.05;;;7.80;;
62030;SDS011;62035;52.094;5.112;2022-10-23T03:15:24;16.73;;;8.55;;
62030;SDS011;62035;52.094;5.112;2022-10-23T03:17:53;12.60;;;7.35;;
62030;SDS011;62035;52.094;5.112;2022-10-23T03:20:21;14.77;;;7.70;;
62030;SDS011;62035;52.094;5.112;2022-10-23T03:22:48;16.25;;;8.38;;
62030;SDS011;62035;52.094;5.112;2022-10-23T03:25:16;13.55;;;7.45;;
62030;SDS011;62035;52.094;5.112;2022-10-23T03:27:43;16.92;;;7.65;;
62030;SDS011;62035;52.094;5.112;2022-10-23T03:30:11;14.95;;;6.93;;
62030;SDS011;62035;52.094;5.112;2022-10-23T03:32:39;17.05;;;7.10;;
62030;SDS011;62035;52.094;5.112;2022-10-23T03:35:08;16.45;;;7.10;;
62030;SDS011;62035;52.094;5.112;2022-10-23T03:37:35;18.13;;;6.72;;
62030;SDS011;62035;52.094;5.112;2022-10-23T03:40:03;11.88;;;6.55;;
62030;SDS011;62035;52.094;5.112;2022-10-23T03:42:32;16.95;;;6.88;;
62030;SDS011;62035;52.094;5.112;2022-10-23T03:45:00;17.65;;;6.97;;
62030;SDS011;62035;52.094;5.112;2022-10-23T03:47:28;13.25;;;6.78;;
62030;SDS011;62035;52.094;5.112;2022-10-23T03:49:57;16.35;;;6.90;;
62030;SDS011;62035;52.094;5.112;2022-10-23T03:52:26;14.60;;;6.65;;
62030;SDS011;62035;52.094;5.112;2022-10-23T03:54:53;12.40;;;6.40;;
62030;SDS011;62035;52.094;5.112;2022-10-23T03:57:21;12.43;;;6.85;;
62030;SDS011;62035;52.094;5.112;2022-10-23T03:59:49;17.48;;;7.07;;
62030;SDS011;62035;52.094;5.112;2022-10-23T04:02:17;12.20;;;6.13;;
62030;SDS011;62035;52.094;5.112;2022-10-23T04:04:45;13.43;;;7.03;;
62030;SDS011;62035;52.094;5.112;2022-10-23T04:07:12;15.25;;;6.60;;
62030;SDS011;62035;52.094;5.112;2022-10-23T04:09:41;15.80;;;6.70;;
62030;SDS011;62035;52.094;5.112;2022-10-23T04:12:09;19.27;;;6.85;;
62030;SDS011;62035;52.094;5.112;2022-10-23T04:14:36;16.33;;;6.43;;
62030;SDS011;62035;52.094;5.112;2022-10-23T04:17:04;15.63;;;7.40;;
62030;SDS011;62035;52.094;5.112;2022-10-23T04:19:31;11.75;;;6.38;;
62030;SDS011;62035;52.094;5.112;2022-10-23T04:21:59;13.85;;;6.78;;
62030;SDS011;62035;52.094;5.112;2022-10-23T04:24:26;11.27;;;6.22;;
62030;SDS011;62035;52.094;5.112;2022-10-23T04:26:55;14.45;;;6.78;;
62030;SDS011;62035;52.094;5.112;2022-10-23T04:29:23;17.20;;;6.13;;
62030;SDS011;62035;52.094;5.112;2022-10-23T04:31:51;15.52;;;6.35;;
62030;SDS011;62035;52.094;5.112;2022-10-23T04:34:19;13.00;;;6.55;;
62030;SDS011;62035;52.094;5.112;2022-10-23T04:36:47;15.32;;;7.18;;
62030;SDS011;62035;52.094;5.112;2022-10-23T04:39:14;10.93;;;6.40;;
62030;SDS011;62035;52.094;5.112;2022-10-23T04:41:42;14.48;;;6.82;;
62030;SDS011;62035;52.094;5.112;2022-10-23T04:44:11;14.60;;;6.13;;
62030;SDS011;62035;52.094;5.112;2022-10-23T04:46:39;14.18;;;6.18;;
62030;SDS011;62035;52.094;5.112;2022-10-23T04:49:06;12.07;;;7.00;;
62030;SDS011;62035;52.094;5.112;2022-10-23T04:51:34;15.35;;;6.10;;
62030;SDS011;62035;52.094;5.112;2022-10-23T04:54:03;14.38;;;6.22;;
62030;SDS011;62035;52.094;5.112;2022-10-23T04:56:31;14.18;;;5.78;;
62030;SDS011;62035;52.094;5.112;2022-10-23T04:58:59;13.27;;;5.90;;
62030;SDS011;62035;52.094;5.112;2022-10-23T05:01:29;12.65;;;5.65;;
62030;SDS011;62035;52.094;5.112;2022-10-23T05:03:56;12.93;;;5.85;;
62030;SDS011;62035;52.094;5.112;2022-10-23T05:06:24;9.38;;;5.05;;
62030;SDS011;62035;52.094;5.112;2022-10-23T05:08:52;12.25;;;5.68;;
62030;SDS011;62035;52.094;5.112;2022-10-23T05:11:19;11.32;;;5.25;;
62030;SDS011;62035;52.094;5.112;2022-10-23T05:13:47;13.00;;;5.28;;
62030;SDS011;62035;52.094;5.112;2022-10-23T05:16:19;9.18;;;5.10;;
62030;SDS011;62035;52.094;5.112;2022-10-23T05:19:01;16.52;;;5.55;;
62030;SDS011;62035;52.094;5.112;2022-10-23T05:21:30;9.68;;;5.00;;
62030;SDS011;62035;52.094;5.112;2022-10-23T05:26:29;11.20;;;4.72;;
62030;SDS011;62035;52.094;5.112;2022-10-23T05:28:58;14.93;;;6.05;;
62030;SDS011;62035;52.094;5.112;2022-10-23T05:31:25;12.05;;;4.82;;
62030;SDS011;62035;52.094;5.112;2022-10-23T05:33:55;10.50;;;4.32;;
62030;SDS011;62035;52.094;5.112;2022-10-23T05:36:23;10.85;;;5.18;;
62030;SDS011;62035;52.094;5.112;2022-10-23T05:38:51;9.38;;;4.75;;
62030;SDS011;62035;52.094;5.112;2022-10-23T05:41:20;10.63;;;4.90;;
62030;SDS011;62035;52.094;5.112;2022-10-23T05:43:47;15.05;;;4.50;;
62030;SDS011;62035;52.094;5.112;2022-10-23T05:46:15;10.70;;;4.32;;
62030;SDS011;62035;52.094;5.112;2022-10-23T05:48:42;14.00;;;5.25;;
62030;SDS011;62035;52.094;5.112;2022-10-23T05:51:11;9.00;;;4.13;;
62030;SDS011;62035;52.094;5.112;2022-10-23T05:53:44;9.85;;;4.97;;
62030;SDS011;62035;52.094;5.112;2022-10-23T05:56:12;11.27;;;4.80;;
62030;SDS011;62035;52.094;5.112;2022-10-23T05:58:40;8.52;;;4.57;;
62030;SDS011;62035;52.094;5.112;2022-10-23T06:01:09;9.23;;;4.38;;
62030;SDS011;62035;52.094;5.112;2022-10-23T06:06:07;9.57;;;4.40;;
62030;SDS011;62035;52.094;5.112;2022-10-23T06:08:36;10.77;;;4.53;;
62030;SDS011;62035;52.094;5.112;2022-10-23T06:11:04;14.57;;;4.47;;
62030;SDS011;62035;52.094;5.112;2022-10-23T06:13:34;13.52;;;4.40;;
62030;SDS011;62035;52.094;5.112;2022-10-23T06:16:08;11.27;;;4.70;;
62030;SDS011;62035;52.094;5.112;2022-10-23T06:18:36;11.68;;;4.80;;
62030;SDS011;62035;52.094;5.112;2022-10-23T06:21:04;13.70;;;4.50;;
62030;SDS011;62035;52.094;5.112;2022-10-23T06:23:33;11.45;;;4.53;;
62030;SDS011;62035;52.094;5.112;2022-10-23T06:26:04;11.05;;;5.03;;
62030;SDS011;62035;52.094;5.112;2022-10-23T06:28:34;8.20;;;4.55;;
62030;SDS011;62035;52.094;5.112;2022-10-23T06:31:02;12.25;;;4.60;;
62030;SDS011;62035;52.094;5.112;2022-10-23T06:33:31;11.07;;;4.80;;
62030;SDS011;62035;52.094;5.112;2022-10-23T06:35:59;10.30;;;4.53;;
62030;SDS011;62035;52.094;5.112;2022-10-23T06:38:30;13.10;;;4.85;;
62030;SDS011;62035;52.094;5.112;2022-10-23T06:41:01;11.63;;;4.53;;
62030;SDS011;62035;52.094;5.112;2022-10-23T06:43:31;10.65;;;4.60;;
62030;SDS011;62035;52.094;5.112;2022-10-23T06:45:59;13.05;;;4.85;;
62030;SDS011;62035;52.094;5.112;2022-10-23T06:48:28;12.15;;;4.80;;
62030;SDS011;62035;52.094;5.112;2022-10-23T06:50:57;12.63;;;5.05;;
62030;SDS011;62035;52.094;5.112;2022-10-23T06:53:29;11.70;;;4.70;;
62030;SDS011;62035;52.094;5.112;2022-10-23T06:55:58;9.30;;;4.32;;
62030;SDS011;62035;52.094;5.112;2022-10-23T06:58:27;14.93;;;5.10;;
62030;SDS011;62035;52.094;5.112;2022-10-23T07:00:57;12.48;;;4.70;;
62030;SDS011;62035;52.094;5.112;2022-10-23T07:03:27;9.63;;;5.07;;
62030;SDS011;62035;52.094;5.112;2022-10-23T07:05:54;15.88;;;5.03;;
62030;SDS011;62035;52.094;5.112;2022-10-23T07:08:22;10.85;;;4.53;;
62030;SDS011;62035;52.094;5.112;2022-10-23T07:10:50;10.77;;;4.45;;
62030;SDS011;62035;52.094;5.112;2022-10-23T07:13:17;10.48;;;5.15;;
62030;SDS011;62035;52.094;5.112;2022-10-23T07:15:46;7.57;;;4.30;;
62030;SDS011;62035;52.094;5.112;2022-10-23T07:18:14;14.38;;;4.80;;
62030;SDS011;62035;52.094;5.112;2022-10-23T07:20:42;14.20;;;4.88;;
62030;SDS011;62035;52.094;5.112;2022-10-23T07:23:11;14.55;;;4.82;;
62030;SDS011;62035;52.094;5.112;2022-10-23T07:25:41;12.75;;;5.10;;
62030;SDS011;62035;52.094;5.112;2022-10-23T07:28:08;13.20;;;4.60;;
62030;SDS011;62035;52.094;5.112;2022-10-23T07:30:36;10.98;;;4.30;;
62030;SDS011;62035;52.094;5.112;2022-10-23T07:33:06;10.18;;;4.80;;
62030;SDS011;62035;52.094;5.112;2022-10-23T07:35:37;12.32;;;5.00;;
62030;SDS011;62035;52.094;5.112;2022-10-23T07:38:06;7.80;;;4.63;;
62030;SDS011;62035;52.094;5.112;2022-10-23T07:40:34;11.23;;;4.95;;
62030;SDS011;62035;52.094;5.112;2022-10-23T07:43:01;8.65;;;5.07;;
62030;SDS011;62035;52.094;5.112;2022-10-23T07:45:29;13.32;;;5.47;;
62030;SDS011;62035;52.094;5.112;2022-10-23T07:47:56;13.02;;;4.90;;
62030;SDS011;62035;52.094;5.112;2022-10-23T07:50:25;14.00;;;4.78;;
62030;SDS011;62035;52.094;5.112;2022-10-23T07:52:53;12.40;;;4.63;;
62030;SDS011;62035;52.094;5.112;2022-10-23T07:55:22;9.57;;;4.60;;
62030;SDS011;62035;52.094;5.112;2022-10-23T07:57:49;12.63;;;4.43;;
62030;SDS011;62035;52.094;5.112;2022-10-23T08:00:17;11.63;;;4.30;;
62030;SDS011;62035;52.094;5.112;2022-10-23T08:02:45;9.40;;;4.32;;
62030;SDS011;62035;52.094;5.112;2022-10-23T08:05:12;10.48;;;4.90;;
62030;SDS011;62035;52.094;5.112;2022-10-23T08:07:41;11.35;;;4.60;;
62030;SDS011;62035;52.094;5.112;2022-10-23T08:10:09;15.45;;;5.00;;
62030;SDS011;62035;52.094;5.112;2022-10-23T08:12:36;11.52;;;5.30;;
62030;SDS011;62035;52.094;5.112;2022-10-23T08:15:05;15.15;;;4.95;;
62030;SDS011;62035;52.094;5.112;2022-10-23T08:17:33;14.48;;;5.00;;
62030;SDS011;62035;52.094;5.112;2022-10-23T08:20:01;11.15;;;4.70;;
62030;SDS011;62035;52.094;5.112;2022-10-23T08:22:28;9.63;;;4.40;;
62030;SDS011;62035;52.094;5.112;2022-10-23T08:24:57;9.32;;;4.60;;
62030;SDS011;62035;52.094;5.112;2022-10-23T08:27:25;10.45;;;4.25;;
62030;SDS011;62035;52.094;5.112;2022-10-23T08:29:53;10.63;;;4.22;;
62030;SDS011;62035;52.094;5.112;2022-10-23T08:32:20;10.07;;;4.72;;
62030;SDS011;62035;52.094;5.112;2022-10-23T08:34:48;15.23;;;5.38;;
62030;SDS011;62035;52.094;5.112;2022-10-23T08:37:15;10.82;;;4.10;;
62030;SDS011;62035;52.094;5.112;2022-10-23T08:39:43;9.77;;;4.43;;
62030;SDS011;62035;52.094;5.112;2022-10-23T08:42:17;10.75;;;4.75;;
62030;SDS011;62035;52.094;5.112;2022-10-23T08:44:49;13.55;;;4.80;;
62030;SDS011;62035;52.094;5.112;2022-10-23T08:47:28;12.88;;;4.30;;
62030;SDS011;62035;52.094;5.112;2022-10-23T08:50:05;8.23;;;3.90;;
62030;SDS011;62035;52.094;5.112;2022-10-23T08:52:47;6.47;;;4.10;;
62030;SDS011;62035;52.094;5.112;2022-10-23T08:55:24;9.00;;;4.60;;
62030;SDS011;62035;52.094;5.112;2022-10-23T08:58:02;13.02;;;4.13;;
62030;SDS011;62035;52.094;5.112;2022-10-23T09:00:40;11.68;;;4.30;;
62030;SDS011;62035;52.094;5.112;2022-10-23T09:03:08;9.05;;;4.07;;
62030;SDS011;62035;52.094;5.112;2022-10-23T09:05:43;13.55;;;4.30;;
62030;SDS011;62035;52.094;5.112;2022-10-23T09:08:30;11.40;;;4.18;;
62030;SDS011;62035;52.094;5.112;2022-10-23T09:11:15;12.10;;;4.38;;
62030;SDS011;62035;52.094;5.112;2022-10-23T09:17:15;9.57;;;4.15;;
62030;SDS011;62035;52.094;5.112;2022-10-23T09:19:53;10.18;;;3.80;;
62030;SDS011;62035;52.094;5.112;2022-10-23T09:22:30;9.98;;;4.47;;
62030;SDS011;62035;52.094;5.112;2022-10-23T09:24:58;9.93;;;4.00;;
62030;SDS011;62035;52.094;5.112;2022-10-23T09:27:26;8.68;;;4.25;;
62030;SDS011;62035;52.094;5.112;2022-10-23T09:29:55;11.70;;;4.32;;
62030;SDS011;62035;52.094;5.112;2022-10-23T09:32:33;13.90;;;4.97;;
62030;SDS011;62035;52.094;5.112;2022-10-23T09:35:03;9.10;;;3.70;;
62030;SDS011;62035;52.094;5.112;2022-10-23T09:37:33;6.65;;;3.85;;
62030;SDS011;62035;52.094;5.112;2022-10-23T09:40:04;9.30;;;3.53;;
62030;SDS011;62035;52.094;5.112;2022-10-23T09:45:22;8.52;;;3.80;;
62030;SDS011;62035;52.094;5.112;2022-10-23T09:50:48;12.35;;;3.75;;
62030;SDS011;62035;52.094;5.112;2022-10-23T09:53:25;9.10;;;3.78;;
62030;SDS011;62035;52.094;5.112;2022-10-23T09:55:59;6.18;;;3.42;;
62030;SDS011;62035;52.094;5.112;2022-10-23T09:58:33;11.77;;;3.55;;
62030;SDS011;62035;52.094;5.112;2022-10-23T10:01:19;7.70;;;3.55;;
62030;SDS011;62035;52.094;5.112;2022-10-23T10:03:50;28.65;;;12.73;;
62030;SDS011;62035;52.094;5.112;2022-10-23T10:06:22;8.55;;;3.80;;
62030;SDS011;62035;52.094;5.112;2022-10-23T10:08:52;8.98;;;3.47;;
62030;SDS011;62035;52.094;5.112;2022-10-23T10:11:25;8.88;;;3.58;;
62030;SDS011;62035;52.094;5.112;2022-10-23T10:14:17;6.35;;;3.05;;
62030;SDS011;62035;52.094;5.112;2022-10-23T10:17:10;9.57;;;3.42;;
62030;SDS011;62035;52.094;5.112;2022-10-23T10:19:58;7.75;;;3.47;;
62030;SDS011;62035;52.094;5.112;2022-10-23T10:22:46;10.73;;;3.35;;
62030;SDS011;62035;52.094;5.112;2022-10-23T10:25:21;8.20;;;3.60;;
62030;SDS011;62035;52.094;5.112;2022-10-23T10:28:03;8.73;;;3.35;;
62030;SDS011;62035;52.094;5.112;2022-10-23T10:30:59;14.38;;;3.80;;
62030;SDS011;62035;52.094;5.112;2022-10-23T10:33:45;9.52;;;3.30;;
62030;SDS011;62035;52.094;5.112;2022-10-23T10:36:33;8.57;;;3.20;;
62030;SDS011;62035;52.094;5.112;2022-10-23T10:39:17;11.77;;;3.03;;
62030;SDS011;62035;52.094;5.112;2022-10-23T10:41:59;10.02;;;3.30;;
62030;SDS011;62035;52.094;5.112;2022-10-23T10:44:49;5.07;;;3.03;;
62030;SDS011;62035;52.094;5.112;2022-10-23T10:47:32;7.20;;;3.17;;
62030;SDS011;62035;52.094;5.112;2022-10-23T10:50:18;7.25;;;3.33;;
62030;SDS011;62035;52.094;5.112;2022-10-23T10:52:55;7.20;;;3.42;;
62030;SDS011;62035;52.094;5.112;2022-10-23T10:55:36;6.65;;;3.22;;
62030;SDS011;62035;52.094;5.112;2022-10-23T10:58:09;6.20;;;2.95;;
62030;SDS011;62035;52.094;5.112;2022-10-23T11:00:47;11.43;;;3.25;;
62030;SDS011;62035;52.094;5.112;2022-10-23T11:03:26;9.82;;;3.20;;
62030;SDS011;62035;52.094;5.112;2022-10-23T11:06:03;10.65;;;3.30;;
62030;SDS011;62035;52.094;5.112;2022-10-23T11:08:39;6.35;;;2.83;;
62030;SDS011;62035;52.094;5.112;2022-10-23T11:11:10;6.32;;;3.10;;
62030;SDS011;62035;52.094;5.112;2022-10-23T11:13:48;7.30;;;3.30;;
62030;SDS011;62035;52.094;5.112;2022-10-23T11:18:53;8.32;;;3.53;;
62030;SDS011;62035;52.094;5.112;2022-10-23T11:21:36;9.80;;;3.95;;
62030;SDS011;62035;52.094;5.112;2022-10-23T11:24:24;15.35;;;5.20;;
62030;SDS011;62035;52.094;5.112;2022-10-23T11:27:35;8.38;;;3.30;;
62030;SDS011;62035;52.094;5.112;2022-10-23T11:30:24;9.98;;;3.40;;
62030;SDS011;62035;52.094;5.112;2022-10-23T11:36:38;7.90;;;2.78;;
62030;SDS011;62035;52.094;5.112;2022-10-23T11:39:17;9.98;;;3.45;;
62030;SDS011;62035;52.094;5.112;2022-10-23T11:41:51;8.98;;;3.63;;
62030;SDS011;62035;52.094;5.112;2022-10-23T11:46:59;7.10;;;3.05;;
62030;SDS011;62035;52.094;5.112;2022-10-23T11:49:28;7.70;;;3.22;;
62030;SDS011;62035;52.094;5.112;2022-10-23T11:52:01;8.63;;;3.30;;
62030;SDS011;62035;52.094;5.112;2022-10-23T11:54:30;9.77;;;3.55;;
62030;SDS011;62035;52.094;5.112;2022-10-23T11:57:08;11.00;;;3.42;;
62030;SDS011;62035;52.094;5.112;2022-10-23T11:59:42;10.10;;;3.63;;
62030;SDS011;62035;52.094;5.112;2022-10-23T12:02:21;9.88;;;3.85;;
62030;SDS011;62035;52.094;5.112;2022-10-23T12:04:57;5.28;;;2.78;;
62030;SDS011;62035;52.094;5.112;2022-10-23T12:07:32;6.32;;;3.05;;
62030;SDS011;62035;52.094;5.112;2022-10-23T12:10:04;11.38;;;3.30;;
62030;SDS011;62035;52.094;5.112;2022-10-23T12:12:53;7.90;;;3.50;;
62030;SDS011;62035;52.094;5.112;2022-10-23T12:15:24;8.27;;;3.10;;
62030;SDS011;62035;52.094;5.112;2022-10-23T12:17:55;10.60;;;3.47;;
62030;SDS011;62035;52.094;5.112;2022-10-23T12:20:43;7.65;;;2.92;;
62030;SDS011;62035;52.094;5.112;2022-10-23T12:23:22;7.95;;;3.30;;
62030;SDS011;62035;52.094;5.112;2022-10-23T12:26:13;5.35;;;2.83;;
62030;SDS011;62035;52.094;5.112;2022-10-23T12:28:56;11.48;;;3.13;;
62030;SDS011;62035;52.094;5.112;2022-10-23T12:31:39;8.90;;;3.80;;
62030;SDS011;62035;52.094;5.112;2022-10-23T12:34:24;10.35;;;4.10;;
62030;SDS011;62035;52.094;5.112;2022-10-23T12:37:10;10.77;;;3.80;;
62030;SDS011;62035;52.094;5.112;2022-10-23T12:40:17;12.45;;;3.13;;
62030;SDS011;62035;52.094;5.112;2022-10-23T12:42:48;7.55;;;3.33;;
62030;SDS011;62035;52.094;5.112;2022-10-23T12:45:21;7.25;;;3.13;;
62030;SDS011;62035;52.094;5.112;2022-10-23T12:47:52;8.77;;;3.45;;
62030;SDS011;62035;52.094;5.112;2022-10-23T12:50:21;12.93;;;3.78;;
62030;SDS011;62035;52.094;5.112;2022-10-23T12:52:53;9.15;;;3.60;;
62030;SDS011;62035;52.094;5.112;2022-10-23T12:55:25;9.65;;;3.47;;
62030;SDS011;62035;52.094;5.112;2022-10-23T12:57:56;12.60;;;3.33;;
62030;SDS011;62035;52.094;5.112;2022-10-23T13:00:24;8.70;;;3.50;;
62030;SDS011;62035;52.094;5.112;2022-10-23T13:02:58;8.23;;;3.60;;
62030;SDS011;62035;52.094;5.112;2022-10-23T13:05:27;7.25;;;3.60;;
62030;SDS011;62035;52.094;5.112;2022-10-23T13:07:56;11.48;;;3.78;;
62030;SDS011;62035;52.094;5.112;2022-10-23T13:10:27;10.15;;;3.60;;
62030;SDS011;62035;52.094;5.112;2022-10-23T13:12:57;10.38;;;3.40;;
62030;SDS011;62035;52.094;5.112;2022-10-23T13:15:35;13.65;;;4.13;;
62030;SDS011;62035;52.094;5.112;2022-10-23T13:18:05;7.18;;;3.63;;
62030;SDS011;62035;52.094;5.112;2022-10-23T13:20:40;7.88;;;3.42;;
62030;SDS011;62035;52.094;5.112;2022-10-23T13:23:10;10.10;;;3.90;;
62030;SDS011;62035;52.094;5.112;2022-10-23T13:25:52;12.30;;;4.35;;
62030;SDS011;62035;52.094;5.112;2022-10-23T13:28:22;10.95;;;3.75;;
62030;SDS011;62035;52.094;5.112;2022-10-23T13:31:00;8.85;;;3.78;;
62030;SDS011;62035;52.094;5.112;2022-10-23T13:33:48;9.52;;;3.80;;
62030;SDS011;62035;52.094;5.112;2022-10-23T13:36:29;12.27;;;3.88;;
62030;SDS011;62035;52.094;5.112;2022-10-23T13:39:02;13.00;;;4.50;;
62030;SDS011;62035;52.094;5.112;2022-10-23T13:41:41;7.43;;;3.92;;
62030;SDS011;62035;52.094;5.112;2022-10-23T13:44:12;8.98;;;3.70;;
62030;SDS011;62035;52.094;5.112;2022-10-23T13:46:42;8.32;;;3.95;;
62030;SDS011;62035;52.094;5.112;2022-10-23T13:49:10;12.57;;;4.95;;
62030;SDS011;62035;52.094;5.112;2022-10-23T13:51:39;8.20;;;3.90;;
62030;SDS011;62035;52.094;5.112;2022-10-23T13:54:13;8.00;;;4.10;;
62030;SDS011;62035;52.094;5.112;2022-10-23T13:56:45;8.73;;;3.72;;
62030;SDS011;62035;52.094;5.112;2022-10-23T13:59:13;10.40;;;3.80;;
62030;SDS011;62035;52.094;5.112;2022-10-23T14:01:42;8.48;;;4.07;;
62030;SDS011;62035;52.094;5.112;2022-10-23T14:04:12;16.20;;;4.85;;
62030;SDS011;62035;52.094;5.112;2022-10-23T14:06:42;8.77;;;4.00;;
62030;SDS011;62035;52.094;5.112;2022-10-23T14:09:10;10.13;;;3.80;;
62030;SDS011;62035;52.094;5.112;2022-10-23T14:11:40;10.15;;;3.25;;
62030;SDS011;62035;52.094;5.112;2022-10-23T14:14:09;10.60;;;4.18;;
62030;SDS011;62035;52.094;5.112;2022-10-23T14:16:37;13.88;;;3.72;;
62030;SDS011;62035;52.094;5.112;2022-10-23T14:19:05;11.20;;;3.80;;
62030;SDS011;62035;52.094;5.112;2022-10-23T14:21:33;10.57;;;4.00;;
62030;SDS011;62035;52.094;5.112;2022-10-23T14:24:01;7.43;;;3.70;;
62030;SDS011;62035;52.094;5.112;2022-10-23T14:26:29;10.15;;;4.45;;
62030;SDS011;62035;52.094;5.112;2022-10-23T14:28:57;9.02;;;3.25;;
62030;SDS011;62035;52.094;5.112;2022-10-23T14:31:26;14.18;;;4.07;;
62030;SDS011;62035;52.094;5.112;2022-10-23T14:33:54;8.50;;;3.60;;
62030;SDS011;62035;52.094;5.112;2022-10-23T14:36:25;7.18;;;3.38;;
62030;SDS011;62035;52.094;5.112;2022-10-23T14:38:54;7.43;;;3.15;;
62030;SDS011;62035;52.094;5.112;2022-10-23T14:41:24;8.27;;;2.92;;
62030;SDS011;62035;52.094;5.112;2022-10-23T14:43:52;9.07;;;3.45;;
62030;SDS011;62035;52.094;5.112;2022-10-23T14:46:21;7.78;;;3.22;;
62030;SDS011;62035;52.094;5.112;2022-10-23T14:48:52;10.50;;;3.80;;
62030;SDS011;62035;52.094;5.112;2022-10-23T14:51:20;10.30;;;3.22;;
62030;SDS011;62035;52.094;5.112;2022-10-23T14:53:53;8.87;;;3.60;;
62030;SDS011;62035;52.094;5.112;2022-10-23T14:56:24;7.45;;;3.97;;
62030;SDS011;62035;52.094;5.112;2022-10-23T14:58:52;9.63;;;3.10;;
62030;SDS011;62035;52.094;5.112;2022-10-23T15:01:27;18.48;;;8.00;;
62030;SDS011;62035;52.094;5.112;2022-10-23T15:03:56;6.68;;;3.03;;
62030;SDS011;62035;52.094;5.112;2022-10-23T15:06:24;14.02;;;3.85;;
62030;SDS011;62035;52.094;5.112;2022-10-23T15:08:52;9.18;;;3.35;;
62030;SDS011;62035;52.094;5.112;2022-10-23T15:11:21;9.98;;;3.47;;
62030;SDS011;62035;52.094;5.112;2022-10-23T15:13:50;9.13;;;4.03;;
62030;SDS011;62035;52.094;5.112;2022-10-23T15:16:20;8.30;;;3.17;;
62030;SDS011;62035;52.094;5.112;2022-10-23T15:18:48;12.43;;;3.80;;
62030;SDS011;62035;52.094;5.112;2022-10-23T15:21:17;6.80;;;3.60;;
62030;SDS011;62035;52.094;5.112;2022-10-23T15:23:45;8.45;;;3.50;;
62030;SDS011;62035;52.094;5.112;2022-10-23T15:26:14;11.30;;;2.88;;
62030;SDS011;62035;52.094;5.112;2022-10-23T15:28:47;10.90;;;4.13;;
62030;SDS011;62035;52.094;5.112;2022-10-23T15:34:19;7.00;;;4.05;;
62030;SDS011;62035;52.094;5.112;2022-10-23T15:36:51;12.35;;;4.00;;
62030;SDS011;62035;52.094;5.112;2022-10-23T15:39:23;12.18;;;3.92;;